sensor_id;sensor_type;location;lat;lon;timestamp;P1;durP1;ratioP1;P2;durP2;ratioP2
57800;SDS011;43627;42.728;23.256;2023-01-23T00:01:28;7.18;;;4.63;;
57800;SDS011;43627;42.728;23.256;2023-01-23T00:03:57;13.77;;;5.65;;
57800;SDS011;43627;42.728;23.256;2023-01-23T00:06:24;9.55;;;5.75;;
57800;SDS011;43627;42.728;23.256;2023-01-23T00:08:51;8.57;;;5.43;;
57800;SDS011;43627;42.728;23.256;2023-01-23T00:11:19;9.90;;;5.95;;
57800;SDS011;43627;42.728;23.256;2023-01-23T00:13:47;12.60;;;7.13;;
57800;SDS011;43627;42.728;23.256;2023-01-23T00:16:18;8.55;;;5.78;;
57800;SDS011;43627;42.728;23.256;2023-01-23T00:18:48;8.20;;;4.82;;
57800;SDS011;43627;42.728;23.256;2023-01-23T00:21:20;10.48;;;4.40;;
57800;SDS011;43627;42.728;23.256;2023-01-23T00:23:51;10.02;;;6.00;;
57800;SDS011;43627;42.728;23.256;2023-01-23T00:26:21;10.77;;;5.32;;
57800;SDS011;43627;42.728;23.256;2023-01-23T00:28:49;11.00;;;6.05;;
57800;SDS011;43627;42.728;23.256;2023-01-23T00:31:18;14.63;;;6.43;;
57800;SDS011;43627;42.728;23.256;2023-01-23T00:33:57;11.07;;;6.53;;
57800;SDS011;43627;42.728;23.256;2023-01-23T00:36:31;11.60;;;7.20;;
57800;SDS011;43627;42.728;23.256;2023-01-23T00:39:04;12.40;;;6.82;;
57800;SDS011;43627;42.728;23.256;2023-01-23T00:41:33;13.23;;;6.40;;
57800;SDS011;43627;42.728;23.256;2023-01-23T00:44:00;8.77;;;6.20;;
57800;SDS011;43627;42.728;23.256;2023-01-23T00:46:26;11.65;;;5.97;;
57800;SDS011;43627;42.728;23.256;2023-01-23T00:48:53;9.57;;;6.53;;
57800;SDS011;43627;42.728;23.256;2023-01-23T00:51:20;15.52;;;6.95;;
57800;SDS011;43627;42.728;23.256;2023-01-23T00:53:47;8.30;;;6.18;;
57800;SDS011;43627;42.728;23.256;2023-01-23T00:56:13;9.63;;;5.55;;
57800;SDS011;43627;42.728;23.256;2023-01-23T00:58:40;11.23;;;6.18;;
57800;SDS011;43627;42.728;23.256;2023-01-23T01:01:10;8.93;;;5.07;;
57800;SDS011;43627;42.728;23.256;2023-01-23T01:03:36;11.32;;;6.47;;
57800;SDS011;43627;42.728;23.256;2023-01-23T01:06:03;8.98;;;5.28;;
57800;SDS011;43627;42.728;23.256;2023-01-23T01:08:30;11.63;;;5.50;;
57800;SDS011;43627;42.728;23.256;2023-01-23T01:10:57;14.25;;;4.68;;
57800;SDS011;43627;42.728;23.256;2023-01-23T01:13:24;8.85;;;5.35;;
57800;SDS011;43627;42.728;23.256;2023-01-23T01:15:50;8.57;;;6.00;;
57800;SDS011;43627;42.728;23.256;2023-01-23T01:18:18;11.00;;;5.43;;
57800;SDS011;43627;42.728;23.256;2023-01-23T01:20:45;9.32;;;6.22;;
57800;SDS011;43627;42.728;23.256;2023-01-23T01:23:13;14.05;;;6.20;;
57800;SDS011;43627;42.728;23.256;2023-01-23T01:25:40;13.27;;;7.15;;
57800;SDS011;43627;42.728;23.256;2023-01-23T01:28:07;10.85;;;6.07;;
57800;SDS011;43627;42.728;23.256;2023-01-23T01:30:33;7.78;;;5.63;;
57800;SDS011;43627;42.728;23.256;2023-01-23T01:33:02;8.68;;;5.13;;
57800;SDS011;43627;42.728;23.256;2023-01-23T01:35:29;13.25;;;6.40;;
57800;SDS011;43627;42.728;23.256;2023-01-23T01:37:55;9.95;;;5.85;;
57800;SDS011;43627;42.728;23.256;2023-01-23T01:40:24;15.30;;;6.10;;
57800;SDS011;43627;42.728;23.256;2023-01-23T01:42:58;12.23;;;5.55;;
57800;SDS011;43627;42.728;23.256;2023-01-23T01:48:35;11.40;;;5.32;;
57800;SDS011;43627;42.728;23.256;2023-01-23T01:51:23;14.10;;;5.85;;
57800;SDS011;43627;42.728;23.256;2023-01-23T01:53:59;9.05;;;6.07;;
57800;SDS011;43627;42.728;23.256;2023-01-23T01:56:28;12.27;;;6.20;;
57800;SDS011;43627;42.728;23.256;2023-01-23T01:58:58;12.48;;;6.78;;
57800;SDS011;43627;42.728;23.256;2023-01-23T02:01:26;13.88;;;6.07;;
57800;SDS011;43627;42.728;23.256;2023-01-23T02:03:53;8.57;;;5.70;;
57800;SDS011;43627;42.728;23.256;2023-01-23T02:06:20;9.68;;;4.93;;
57800;SDS011;43627;42.728;23.256;2023-01-23T02:08:51;10.23;;;4.88;;
57800;SDS011;43627;42.728;23.256;2023-01-23T02:11:19;9.57;;;4.85;;
57800;SDS011;43627;42.728;23.256;2023-01-23T02:13:46;8.45;;;4.90;;
57800;SDS011;43627;42.728;23.256;2023-01-23T02:16:20;9.35;;;5.32;;
57800;SDS011;43627;42.728;23.256;2023-01-23T02:18:50;10.85;;;6.03;;
57800;SDS011;43627;42.728;23.256;2023-01-23T02:21:20;5.93;;;3.60;;
57800;SDS011;43627;42.728;23.256;2023-01-23T02:23:55;9.77;;;5.20;;
57800;SDS011;43627;42.728;23.256;2023-01-23T02:26:55;10.90;;;5.45;;
57800;SDS011;43627;42.728;23.256;2023-01-23T02:29:22;5.90;;;3.50;;
57800;SDS011;43627;42.728;23.256;2023-01-23T02:31:49;7.75;;;3.55;;
57800;SDS011;43627;42.728;23.256;2023-01-23T02:34:18;8.82;;;4.45;;
57800;SDS011;43627;42.728;23.256;2023-01-23T02:36:47;6.45;;;3.85;;
57800;SDS011;43627;42.728;23.256;2023-01-23T02:39:15;10.80;;;5.07;;
57800;SDS011;43627;42.728;23.256;2023-01-23T02:41:47;8.27;;;4.35;;
57800;SDS011;43627;42.728;23.256;2023-01-23T02:44:16;11.15;;;5.07;;
57800;SDS011;43627;42.728;23.256;2023-01-23T02:46:55;9.43;;;5.22;;
57800;SDS011;43627;42.728;23.256;2023-01-23T02:49:24;10.13;;;5.28;;
57800;SDS011;43627;42.728;23.256;2023-01-23T02:51:51;10.18;;;5.72;;
57800;SDS011;43627;42.728;23.256;2023-01-23T02:54:19;9.50;;;4.78;;
57800;SDS011;43627;42.728;23.256;2023-01-23T02:56:47;15.60;;;5.15;;
57800;SDS011;43627;42.728;23.256;2023-01-23T02:59:14;8.05;;;4.13;;
57800;SDS011;43627;42.728;23.256;2023-01-23T03:02:00;6.07;;;3.28;;
57800;SDS011;43627;42.728;23.256;2023-01-23T03:04:27;7.38;;;4.32;;
57800;SDS011;43627;42.728;23.256;2023-01-23T03:06:53;12.43;;;4.65;;
57800;SDS011;43627;42.728;23.256;2023-01-23T03:09:20;10.75;;;4.43;;
57800;SDS011;43627;42.728;23.256;2023-01-23T03:11:47;9.68;;;4.72;;
57800;SDS011;43627;42.728;23.256;2023-01-23T03:14:16;10.80;;;4.22;;
57800;SDS011;43627;42.728;23.256;2023-01-23T03:16:45;6.88;;;3.67;;
57800;SDS011;43627;42.728;23.256;2023-01-23T03:19:16;7.65;;;3.42;;
57800;SDS011;43627;42.728;23.256;2023-01-23T03:24:16;7.43;;;3.17;;
57800;SDS011;43627;42.728;23.256;2023-01-23T03:26:44;6.18;;;2.53;;
57800;SDS011;43627;42.728;23.256;2023-01-23T03:32:02;7.00;;;2.38;;
57800;SDS011;43627;42.728;23.256;2023-01-23T03:34:29;4.22;;;2.10;;
57800;SDS011;43627;42.728;23.256;2023-01-23T03:36:56;6.40;;;3.20;;
57800;SDS011;43627;42.728;23.256;2023-01-23T03:39:23;4.88;;;2.85;;
57800;SDS011;43627;42.728;23.256;2023-01-23T03:42:09;4.63;;;2.55;;
57800;SDS011;43627;42.728;23.256;2023-01-23T03:44:35;6.43;;;3.38;;
57800;SDS011;43627;42.728;23.256;2023-01-23T03:47:02;6.25;;;3.22;;
57800;SDS011;43627;42.728;23.256;2023-01-23T03:49:29;6.32;;;3.40;;
57800;SDS011;43627;42.728;23.256;2023-01-23T03:51:56;9.73;;;5.38;;
57800;SDS011;43627;42.728;23.256;2023-01-23T03:54:23;10.45;;;4.15;;
57800;SDS011;43627;42.728;23.256;2023-01-23T03:56:50;7.63;;;3.92;;
57800;SDS011;43627;42.728;23.256;2023-01-23T03:59:16;10.63;;;4.32;;
57800;SDS011;43627;42.728;23.256;2023-01-23T04:01:43;9.95;;;4.63;;
57800;SDS011;43627;42.728;23.256;2023-01-23T04:04:10;7.55;;;3.50;;
57800;SDS011;43627;42.728;23.256;2023-01-23T04:06:37;5.95;;;3.33;;
57800;SDS011;43627;42.728;23.256;2023-01-23T04:09:03;6.10;;;2.85;;
57800;SDS011;43627;42.728;23.256;2023-01-23T04:11:30;8.98;;;4.05;;
57800;SDS011;43627;42.728;23.256;2023-01-23T04:13:57;6.63;;;3.03;;
57800;SDS011;43627;42.728;23.256;2023-01-23T04:16:24;8.43;;;4.85;;
57800;SDS011;43627;42.728;23.256;2023-01-23T04:18:52;6.85;;;3.05;;
57800;SDS011;43627;42.728;23.256;2023-01-23T04:21:20;5.93;;;3.33;;
57800;SDS011;43627;42.728;23.256;2023-01-23T04:23:47;10.90;;;3.30;;
57800;SDS011;43627;42.728;23.256;2023-01-23T04:26:13;9.13;;;3.33;;
57800;SDS011;43627;42.728;23.256;2023-01-23T04:28:40;6.38;;;3.28;;
57800;SDS011;43627;42.728;23.256;2023-01-23T04:31:07;9.65;;;3.72;;
57800;SDS011;43627;42.728;23.256;2023-01-23T04:33:34;6.32;;;3.63;;
57800;SDS011;43627;42.728;23.256;2023-01-23T04:36:02;5.95;;;3.42;;
57800;SDS011;43627;42.728;23.256;2023-01-23T04:38:30;6.85;;;3.22;;
57800;SDS011;43627;42.728;23.256;2023-01-23T04:40:57;6.90;;;3.38;;
57800;SDS011;43627;42.728;23.256;2023-01-23T04:43:25;5.90;;;2.72;;
57800;SDS011;43627;42.728;23.256;2023-01-23T04:45:54;13.13;;;2.92;;
57800;SDS011;43627;42.728;23.256;2023-01-23T04:48:21;4.10;;;2.30;;
57800;SDS011;43627;42.728;23.256;2023-01-23T04:50:48;7.00;;;3.28;;
57800;SDS011;43627;42.728;23.256;2023-01-23T04:53:16;7.20;;;3.40;;
57800;SDS011;43627;42.728;23.256;2023-01-23T04:55:43;2.95;;;1.98;;
57800;SDS011;43627;42.728;23.256;2023-01-23T04:58:12;4.28;;;2.45;;
57800;SDS011;43627;42.728;23.256;2023-01-23T05:00:39;13.32;;;2.53;;
57800;SDS011;43627;42.728;23.256;2023-01-23T05:03:06;4.57;;;2.38;;
57800;SDS011;43627;42.728;23.256;2023-01-23T05:05:32;6.97;;;2.95;;
57800;SDS011;43627;42.728;23.256;2023-01-23T05:07:59;8.15;;;3.97;;
57800;SDS011;43627;42.728;23.256;2023-01-23T05:10:26;7.32;;;2.72;;
57800;SDS011;43627;42.728;23.256;2023-01-23T05:12:52;4.90;;;2.40;;
57800;SDS011;43627;42.728;23.256;2023-01-23T05:15:19;9.50;;;3.75;;
57800;SDS011;43627;42.728;23.256;2023-01-23T05:17:47;3.88;;;2.30;;
57800;SDS011;43627;42.728;23.256;2023-01-23T05:20:14;6.60;;;2.88;;
57800;SDS011;43627;42.728;23.256;2023-01-23T05:22:41;6.15;;;2.85;;
57800;SDS011;43627;42.728;23.256;2023-01-23T05:25:22;5.43;;;2.55;;
57800;SDS011;43627;42.728;23.256;2023-01-23T05:27:50;5.10;;;2.45;;
57800;SDS011;43627;42.728;23.256;2023-01-23T05:30:18;5.70;;;2.53;;
57800;SDS011;43627;42.728;23.256;2023-01-23T05:32:47;6.15;;;2.42;;
57800;SDS011;43627;42.728;23.256;2023-01-23T05:35:15;6.75;;;3.13;;
57800;SDS011;43627;42.728;23.256;2023-01-23T05:37:41;6.50;;;2.65;;
57800;SDS011;43627;42.728;23.256;2023-01-23T05:40:09;6.07;;;2.50;;
57800;SDS011;43627;42.728;23.256;2023-01-23T05:42:38;4.45;;;2.25;;
57800;SDS011;43627;42.728;23.256;2023-01-23T05:45:05;5.85;;;2.17;;
57800;SDS011;43627;42.728;23.256;2023-01-23T05:47:32;4.35;;;2.13;;
57800;SDS011;43627;42.728;23.256;2023-01-23T05:49:58;3.83;;;2.15;;
57800;SDS011;43627;42.728;23.256;2023-01-23T05:52:26;5.50;;;2.22;;
57800;SDS011;43627;42.728;23.256;2023-01-23T05:54:53;9.85;;;3.08;;
57800;SDS011;43627;42.728;23.256;2023-01-23T05:57:20;7.03;;;3.65;;
57800;SDS011;43627;42.728;23.256;2023-01-23T05:59:47;6.20;;;3.13;;
57800;SDS011;43627;42.728;23.256;2023-01-23T06:02:13;7.63;;;3.92;;
57800;SDS011;43627;42.728;23.256;2023-01-23T06:04:40;6.03;;;3.20;;
57800;SDS011;43627;42.728;23.256;2023-01-23T06:07:11;7.63;;;3.50;;
57800;SDS011;43627;42.728;23.256;2023-01-23T06:09:39;5.45;;;2.47;;
57800;SDS011;43627;42.728;23.256;2023-01-23T06:12:06;5.75;;;2.63;;
57800;SDS011;43627;42.728;23.256;2023-01-23T06:14:33;9.55;;;2.35;;
57800;SDS011;43627;42.728;23.256;2023-01-23T06:16:59;6.47;;;2.75;;
57800;SDS011;43627;42.728;23.256;2023-01-23T06:19:26;6.53;;;3.00;;
57800;SDS011;43627;42.728;23.256;2023-01-23T06:21:53;5.18;;;2.50;;
57800;SDS011;43627;42.728;23.256;2023-01-23T06:24:19;3.85;;;2.13;;
57800;SDS011;43627;42.728;23.256;2023-01-23T06:26:46;6.95;;;3.13;;
57800;SDS011;43627;42.728;23.256;2023-01-23T06:29:12;3.85;;;2.38;;
57800;SDS011;43627;42.728;23.256;2023-01-23T06:31:39;5.85;;;2.92;;
57800;SDS011;43627;42.728;23.256;2023-01-23T06:34:06;5.82;;;2.90;;
57800;SDS011;43627;42.728;23.256;2023-01-23T06:36:33;9.50;;;3.47;;
57800;SDS011;43627;42.728;23.256;2023-01-23T06:39:00;5.85;;;2.85;;
57800;SDS011;43627;42.728;23.256;2023-01-23T06:41:27;7.10;;;3.47;;
57800;SDS011;43627;42.728;23.256;2023-01-23T06:43:54;6.40;;;2.92;;
57800;SDS011;43627;42.728;23.256;2023-01-23T06:46:21;9.32;;;3.97;;
57800;SDS011;43627;42.728;23.256;2023-01-23T06:48:50;9.05;;;3.83;;
57800;SDS011;43627;42.728;23.256;2023-01-23T06:51:17;8.82;;;3.97;;
57800;SDS011;43627;42.728;23.256;2023-01-23T06:53:44;10.00;;;4.22;;
57800;SDS011;43627;42.728;23.256;2023-01-23T06:56:11;13.90;;;5.07;;
57800;SDS011;43627;42.728;23.256;2023-01-23T06:58:38;10.40;;;4.85;;
57800;SDS011;43627;42.728;23.256;2023-01-23T07:01:08;9.15;;;4.60;;
57800;SDS011;43627;42.728;23.256;2023-01-23T07:03:38;8.77;;;4.72;;
57800;SDS011;43627;42.728;23.256;2023-01-23T07:06:05;13.57;;;6.35;;
57800;SDS011;43627;42.728;23.256;2023-01-23T07:08:33;11.32;;;5.60;;
57800;SDS011;43627;42.728;23.256;2023-01-23T07:11:00;16.70;;;6.93;;
57800;SDS011;43627;42.728;23.256;2023-01-23T07:13:27;13.68;;;6.78;;
57800;SDS011;43627;42.728;23.256;2023-01-23T07:15:54;17.35;;;7.80;;
57800;SDS011;43627;42.728;23.256;2023-01-23T07:18:21;13.32;;;6.65;;
57800;SDS011;43627;42.728;23.256;2023-01-23T07:20:48;12.55;;;6.60;;
57800;SDS011;43627;42.728;23.256;2023-01-23T07:23:15;10.75;;;5.22;;
57800;SDS011;43627;42.728;23.256;2023-01-23T07:25:42;15.95;;;6.28;;
57800;SDS011;43627;42.728;23.256;2023-01-23T07:28:09;12.73;;;5.50;;
57800;SDS011;43627;42.728;23.256;2023-01-23T07:30:37;15.27;;;7.45;;
57800;SDS011;43627;42.728;23.256;2023-01-23T07:33:04;15.57;;;7.75;;
57800;SDS011;43627;42.728;23.256;2023-01-23T07:35:31;13.80;;;6.70;;
57800;SDS011;43627;42.728;23.256;2023-01-23T07:37:58;17.90;;;7.85;;
57800;SDS011;43627;42.728;23.256;2023-01-23T07:40:25;18.35;;;9.23;;
57800;SDS011;43627;42.728;23.256;2023-01-23T07:42:52;14.32;;;6.57;;
57800;SDS011;43627;42.728;23.256;2023-01-23T07:45:19;14.90;;;7.38;;
57800;SDS011;43627;42.728;23.256;2023-01-23T07:47:46;17.27;;;8.88;;
57800;SDS011;43627;42.728;23.256;2023-01-23T07:50:12;16.23;;;8.52;;
57800;SDS011;43627;42.728;23.256;2023-01-23T07:52:40;16.02;;;8.30;;
57800;SDS011;43627;42.728;23.256;2023-01-23T07:55:07;15.95;;;6.93;;
57800;SDS011;43627;42.728;23.256;2023-01-23T07:57:40;18.45;;;8.80;;
57800;SDS011;43627;42.728;23.256;2023-01-23T08:00:16;24.15;;;9.10;;
57800;SDS011;43627;42.728;23.256;2023-01-23T08:02:44;19.73;;;9.90;;
57800;SDS011;43627;42.728;23.256;2023-01-23T08:05:10;17.17;;;8.95;;
57800;SDS011;43627;42.728;23.256;2023-01-23T08:07:37;13.88;;;8.90;;
57800;SDS011;43627;42.728;23.256;2023-01-23T08:10:04;15.02;;;7.53;;
57800;SDS011;43627;42.728;23.256;2023-01-23T08:12:32;14.80;;;7.68;;
57800;SDS011;43627;42.728;23.256;2023-01-23T08:14:59;15.05;;;7.88;;
57800;SDS011;43627;42.728;23.256;2023-01-23T08:17:28;16.05;;;7.57;;
57800;SDS011;43627;42.728;23.256;2023-01-23T08:19:55;18.45;;;9.30;;
57800;SDS011;43627;42.728;23.256;2023-01-23T08:22:21;17.92;;;6.88;;
57800;SDS011;43627;42.728;23.256;2023-01-23T08:24:48;13.07;;;5.55;;
57800;SDS011;43627;42.728;23.256;2023-01-23T08:27:15;16.92;;;7.20;;
57800;SDS011;43627;42.728;23.256;2023-01-23T08:29:44;22.90;;;7.80;;
57800;SDS011;43627;42.728;23.256;2023-01-23T08:32:11;13.43;;;7.10;;
57800;SDS011;43627;42.728;23.256;2023-01-23T08:34:41;17.52;;;8.13;;
57800;SDS011;43627;42.728;23.256;2023-01-23T08:37:19;12.55;;;5.68;;
57800;SDS011;43627;42.728;23.256;2023-01-23T08:39:46;15.23;;;6.82;;
57800;SDS011;43627;42.728;23.256;2023-01-23T08:42:19;11.80;;;5.82;;
57800;SDS011;43627;42.728;23.256;2023-01-23T08:44:45;14.80;;;6.43;;
57800;SDS011;43627;42.728;23.256;2023-01-23T08:47:12;10.38;;;5.55;;
57800;SDS011;43627;42.728;23.256;2023-01-23T08:49:39;11.93;;;5.55;;
57800;SDS011;43627;42.728;23.256;2023-01-23T08:52:06;9.05;;;4.72;;
57800;SDS011;43627;42.728;23.256;2023-01-23T08:54:35;8.38;;;4.63;;
57800;SDS011;43627;42.728;23.256;2023-01-23T08:57:13;7.65;;;4.18;;
57800;SDS011;43627;42.728;23.256;2023-01-23T08:59:40;9.20;;;4.45;;
57800;SDS011;43627;42.728;23.256;2023-01-23T09:02:09;6.38;;;3.78;;
57800;SDS011;43627;42.728;23.256;2023-01-23T09:04:38;12.48;;;4.70;;
57800;SDS011;43627;42.728;23.256;2023-01-23T09:07:05;8.32;;;4.28;;
57800;SDS011;43627;42.728;23.256;2023-01-23T09:09:32;11.70;;;4.30;;
57800;SDS011;43627;42.728;23.256;2023-01-23T09:11:59;8.13;;;3.97;;
57800;SDS011;43627;42.728;23.256;2023-01-23T09:14:26;9.73;;;3.65;;
57800;SDS011;43627;42.728;23.256;2023-01-23T09:16:53;7.50;;;4.15;;
57800;SDS011;43627;42.728;23.256;2023-01-23T09:19:20;7.78;;;3.72;;
57800;SDS011;43627;42.728;23.256;2023-01-23T09:21:47;7.28;;;4.60;;
57800;SDS011;43627;42.728;23.256;2023-01-23T09:24:13;15.48;;;4.90;;
57800;SDS011;43627;42.728;23.256;2023-01-23T09:26:41;9.70;;;4.85;;
57800;SDS011;43627;42.728;23.256;2023-01-23T09:29:08;7.45;;;3.58;;
57800;SDS011;43627;42.728;23.256;2023-01-23T09:31:37;6.50;;;3.25;;
57800;SDS011;43627;42.728;23.256;2023-01-23T09:34:04;10.18;;;4.10;;
57800;SDS011;43627;42.728;23.256;2023-01-23T09:36:33;7.75;;;3.67;;
57800;SDS011;43627;42.728;23.256;2023-01-23T09:39:08;6.75;;;3.50;;
57800;SDS011;43627;42.728;23.256;2023-01-23T09:41:36;5.18;;;2.95;;
57800;SDS011;43627;42.728;23.256;2023-01-23T09:44:05;7.05;;;3.72;;
57800;SDS011;43627;42.728;23.256;2023-01-23T09:46:54;7.70;;;4.18;;
57800;SDS011;43627;42.728;23.256;2023-01-23T09:52:16;7.53;;;3.72;;
57800;SDS011;43627;42.728;23.256;2023-01-23T09:55:00;7.73;;;3.13;;
57800;SDS011;43627;42.728;23.256;2023-01-23T09:57:52;7.97;;;3.53;;
57800;SDS011;43627;42.728;23.256;2023-01-23T10:00:22;13.65;;;5.28;;
57800;SDS011;43627;42.728;23.256;2023-01-23T10:02:52;7.10;;;3.42;;
57800;SDS011;43627;42.728;23.256;2023-01-23T10:05:21;8.43;;;4.13;;
57800;SDS011;43627;42.728;23.256;2023-01-23T10:08:26;10.75;;;5.38;;
57800;SDS011;43627;42.728;23.256;2023-01-23T10:11:34;9.93;;;4.80;;
57800;SDS011;43627;42.728;23.256;2023-01-23T10:25:19;7.38;;;3.95;;
57800;SDS011;43627;42.728;23.256;2023-01-23T10:27:50;9.65;;;4.50;;
57800;SDS011;43627;42.728;23.256;2023-01-23T10:30:30;9.85;;;5.32;;
57800;SDS011;43627;42.728;23.256;2023-01-23T10:33:01;13.25;;;7.00;;
57800;SDS011;43627;42.728;23.256;2023-01-23T10:35:40;8.65;;;4.60;;
57800;SDS011;43627;42.728;23.256;2023-01-23T10:40:54;5.57;;;3.42;;
57800;SDS011;43627;42.728;23.256;2023-01-23T10:43:42;9.02;;;4.95;;
57800;SDS011;43627;42.728;23.256;2023-01-23T10:49:00;10.52;;;5.22;;
57800;SDS011;43627;42.728;23.256;2023-01-23T10:51:43;12.68;;;6.28;;
57800;SDS011;43627;42.728;23.256;2023-01-23T10:54:19;13.88;;;6.63;;
57800;SDS011;43627;42.728;23.256;2023-01-23T10:57:01;14.25;;;7.10;;
57800;SDS011;43627;42.728;23.256;2023-01-23T11:02:01;14.57;;;6.45;;
57800;SDS011;43627;42.728;23.256;2023-01-23T11:04:41;12.20;;;5.65;;
57800;SDS011;43627;42.728;23.256;2023-01-23T11:07:20;11.05;;;5.90;;
57800;SDS011;43627;42.728;23.256;2023-01-23T11:12:26;11.82;;;6.78;;
57800;SDS011;43627;42.728;23.256;2023-01-23T11:15:11;10.30;;;5.90;;
57800;SDS011;43627;42.728;23.256;2023-01-23T11:17:53;10.48;;;5.00;;
57800;SDS011;43627;42.728;23.256;2023-01-23T11:20:27;16.33;;;6.15;;
57800;SDS011;43627;42.728;23.256;2023-01-23T11:25:37;9.48;;;6.13;;
57800;SDS011;43627;42.728;23.256;2023-01-23T11:39:08;9.75;;;5.65;;
57800;SDS011;43627;42.728;23.256;2023-01-23T11:41:44;10.27;;;4.93;;
57800;SDS011;43627;42.728;23.256;2023-01-23T11:44:21;10.35;;;5.72;;
57800;SDS011;43627;42.728;23.256;2023-01-23T11:47:00;14.43;;;6.93;;
57800;SDS011;43627;42.728;23.256;2023-01-23T11:52:27;6.47;;;4.20;;
57800;SDS011;43627;42.728;23.256;2023-01-23T11:58:30;9.07;;;5.38;;
57800;SDS011;43627;42.728;23.256;2023-01-23T12:04:03;8.13;;;4.97;;
57800;SDS011;43627;42.728;23.256;2023-01-23T12:09:25;10.35;;;5.15;;
57800;SDS011;43627;42.728;23.256;2023-01-23T12:12:11;9.90;;;5.07;;
57800;SDS011;43627;42.728;23.256;2023-01-23T12:17:44;11.20;;;6.22;;
57800;SDS011;43627;42.728;23.256;2023-01-23T12:20:37;13.32;;;4.85;;
57800;SDS011;43627;42.728;23.256;2023-01-23T12:52:57;10.10;;;5.68;;
57800;SDS011;43627;42.728;23.256;2023-01-23T12:55:32;17.13;;;6.00;;
57800;SDS011;43627;42.728;23.256;2023-01-23T12:58:03;7.65;;;5.28;;
57800;SDS011;43627;42.728;23.256;2023-01-23T13:09:27;7.72;;;5.15;;
57800;SDS011;43627;42.728;23.256;2023-01-23T13:14:47;9.48;;;5.88;;
57800;SDS011;43627;42.728;23.256;2023-01-23T13:17:37;13.15;;;7.03;;
57800;SDS011;43627;42.728;23.256;2023-01-23T13:20:21;11.93;;;7.03;;
57800;SDS011;43627;42.728;23.256;2023-01-23T13:23:27;11.85;;;6.53;;
57800;SDS011;43627;42.728;23.256;2023-01-23T13:28:49;14.35;;;6.32;;
57800;SDS011;43627;42.728;23.256;2023-01-23T13:31:24;11.88;;;6.03;;
57800;SDS011;43627;42.728;23.256;2023-01-23T13:36:46;13.98;;;7.20;;
57800;SDS011;43627;42.728;23.256;2023-01-23T13:41:52;9.43;;;5.78;;
57800;SDS011;43627;42.728;23.256;2023-01-23T13:47:25;19.70;;;9.63;;
57800;SDS011;43627;42.728;23.256;2023-01-23T13:50:35;11.90;;;7.00;;
57800;SDS011;43627;42.728;23.256;2023-01-23T13:53:23;18.15;;;8.82;;
57800;SDS011;43627;42.728;23.256;2023-01-23T13:56:23;14.68;;;8.18;;
57800;SDS011;43627;42.728;23.256;2023-01-23T14:05:33;13.35;;;8.00;;
57800;SDS011;43627;42.728;23.256;2023-01-23T14:08:17;13.73;;;8.32;;
57800;SDS011;43627;42.728;23.256;2023-01-23T14:11:00;16.65;;;8.48;;
57800;SDS011;43627;42.728;23.256;2023-01-23T14:13:50;20.98;;;11.32;;
57800;SDS011;43627;42.728;23.256;2023-01-23T14:16:55;17.95;;;10.27;;
57800;SDS011;43627;42.728;23.256;2023-01-23T14:19:37;16.42;;;9.52;;
57800;SDS011;43627;42.728;23.256;2023-01-23T14:22:32;18.60;;;9.55;;
57800;SDS011;43627;42.728;23.256;2023-01-23T14:25:00;27.05;;;11.50;;
57800;SDS011;43627;42.728;23.256;2023-01-23T14:27:34;18.55;;;9.80;;
57800;SDS011;43627;42.728;23.256;2023-01-23T14:30:24;27.70;;;12.25;;
57800;SDS011;43627;42.728;23.256;2023-01-23T14:33:15;15.98;;;9.25;;
57800;SDS011;43627;42.728;23.256;2023-01-23T14:35:43;23.07;;;10.77;;
57800;SDS011;43627;42.728;23.256;2023-01-23T14:38:13;17.13;;;9.32;;
57800;SDS011;43627;42.728;23.256;2023-01-23T14:40:45;16.83;;;8.65;;
57800;SDS011;43627;42.728;23.256;2023-01-23T14:43:17;19.08;;;9.32;;
57800;SDS011;43627;42.728;23.256;2023-01-23T14:45:47;17.48;;;7.10;;
57800;SDS011;43627;42.728;23.256;2023-01-23T14:48:18;25.05;;;12.45;;
57800;SDS011;43627;42.728;23.256;2023-01-23T14:50:46;24.25;;;12.70;;
57800;SDS011;43627;42.728;23.256;2023-01-23T14:53:13;23.30;;;11.90;;
57800;SDS011;43627;42.728;23.256;2023-01-23T14:55:41;19.33;;;10.13;;
57800;SDS011;43627;42.728;23.256;2023-01-23T14:58:22;17.83;;;9.65;;
57800;SDS011;43627;42.728;23.256;2023-01-23T15:00:51;19.60;;;11.13;;
57800;SDS011;43627;42.728;23.256;2023-01-23T15:06:24;20.95;;;10.93;;
57800;SDS011;43627;42.728;23.256;2023-01-23T15:08:51;18.17;;;9.65;;
57800;SDS011;43627;42.728;23.256;2023-01-23T15:11:25;23.13;;;10.60;;
57800;SDS011;43627;42.728;23.256;2023-01-23T15:13:54;22.60;;;10.63;;
57800;SDS011;43627;42.728;23.256;2023-01-23T15:16:28;20.42;;;10.45;;
57800;SDS011;43627;42.728;23.256;2023-01-23T15:19:00;19.45;;;9.05;;
57800;SDS011;43627;42.728;23.256;2023-01-23T15:21:36;18.00;;;8.95;;
57800;SDS011;43627;42.728;23.256;2023-01-23T15:26:35;16.55;;;7.88;;
57800;SDS011;43627;42.728;23.256;2023-01-23T15:39:38;19.05;;;10.70;;
57800;SDS011;43627;42.728;23.256;2023-01-23T15:44:42;33.30;;;15.35;;
57800;SDS011;43627;42.728;23.256;2023-01-23T15:47:09;27.85;;;12.32;;
57800;SDS011;43627;42.728;23.256;2023-01-23T15:49:37;19.08;;;11.50;;
57800;SDS011;43627;42.728;23.256;2023-01-23T15:54:43;23.52;;;10.55;;
57800;SDS011;43627;42.728;23.256;2023-01-23T15:57:10;25.92;;;13.38;;
57800;SDS011;43627;42.728;23.256;2023-01-23T15:59:37;23.52;;;10.95;;
57800;SDS011;43627;42.728;23.256;2023-01-23T16:02:05;19.80;;;10.07;;
57800;SDS011;43627;42.728;23.256;2023-01-23T16:04:43;16.27;;;8.13;;
57800;SDS011;43627;42.728;23.256;2023-01-23T16:07:17;16.23;;;9.45;;
57800;SDS011;43627;42.728;23.256;2023-01-23T16:09:48;19.25;;;9.20;;
57800;SDS011;43627;42.728;23.256;2023-01-23T16:12:17;14.60;;;7.45;;
57800;SDS011;43627;42.728;23.256;2023-01-23T16:14:45;11.07;;;5.82;;
57800;SDS011;43627;42.728;23.256;2023-01-23T16:17:12;15.20;;;7.25;;
57800;SDS011;43627;42.728;23.256;2023-01-23T16:19:42;17.58;;;8.23;;
57800;SDS011;43627;42.728;23.256;2023-01-23T16:22:10;15.43;;;6.45;;
57800;SDS011;43627;42.728;23.256;2023-01-23T16:24:46;15.35;;;8.10;;
57800;SDS011;43627;42.728;23.256;2023-01-23T16:27:14;11.50;;;6.97;;
57800;SDS011;43627;42.728;23.256;2023-01-23T16:29:44;18.52;;;8.93;;
57800;SDS011;43627;42.728;23.256;2023-01-23T16:32:11;14.48;;;6.95;;
57800;SDS011;43627;42.728;23.256;2023-01-23T16:34:38;10.85;;;5.70;;
57800;SDS011;43627;42.728;23.256;2023-01-23T16:37:04;15.60;;;8.07;;
57800;SDS011;43627;42.728;23.256;2023-01-23T16:39:39;15.80;;;7.45;;
57800;SDS011;43627;42.728;23.256;2023-01-23T16:42:15;13.55;;;8.00;;
57800;SDS011;43627;42.728;23.256;2023-01-23T16:44:45;14.02;;;5.78;;
57800;SDS011;43627;42.728;23.256;2023-01-23T16:47:12;15.63;;;6.78;;
57800;SDS011;43627;42.728;23.256;2023-01-23T16:49:38;10.57;;;5.30;;
57800;SDS011;43627;42.728;23.256;2023-01-23T16:52:17;9.00;;;4.55;;
57800;SDS011;43627;42.728;23.256;2023-01-23T16:54:44;8.55;;;3.95;;
57800;SDS011;43627;42.728;23.256;2023-01-23T16:57:16;10.45;;;5.50;;
57800;SDS011;43627;42.728;23.256;2023-01-23T16:59:45;8.27;;;4.82;;
57800;SDS011;43627;42.728;23.256;2023-01-23T17:02:20;8.63;;;4.05;;
57800;SDS011;43627;42.728;23.256;2023-01-23T17:04:51;8.85;;;4.25;;
57800;SDS011;43627;42.728;23.256;2023-01-23T17:07:18;6.65;;;3.67;;
57800;SDS011;43627;42.728;23.256;2023-01-23T17:09:45;6.95;;;3.35;;